• Join FlightAware (Why Join?)
  • Login
  • US Flag 
08:17AM EDT


 

Airport Tracker/Info


-or-


 

Live Flight TrackerFlight Track Log ✈ KAP174 ✈ 14-May-2013 ✈ KBOS - KBHB

Flight Track Log - Related Links

Times and Time Zones

All times are in EDT time to prevent confusion due to time zone crossing. See the KAP174 flight status page for this flight to view local times or setup timezone preferences in your user account.

Time Position Orientation Groundspeed Altitude Reporting Facility
EDT Latitude Longitude Course Direction KTS MPH feet Rate Location/Type
02:00PM 42.3833 -71.0000 324° Northwest 112 129 400  Level KA90
02:01PM 42.4000 -71.0167 324° Northwest 105 121 1,300 660 Climbing KA90
02:02PM 42.4333 -71.0333 340° North 120 138 1,800 480 Climbing KA90
02:03PM 42.4667 -71.0500 340° North 121 139 2,300 540 Climbing KA90
02:04PM 42.5000 -71.0667 340° North 125 144 2,900 600 Climbing KA90
02:05PM 42.5333 -71.0500 20° North 133 153 3,600 600 Climbing KA90
02:06PM 42.5667 -71.0167 36° Northeast 141 162 4,200 480 Climbing KA90
02:07PM 42.6000 -70.9833 36° Northeast 139 160 4,600 300 Climbing KA90
02:08PM 42.6333 -70.9500 36° Northeast 157 181 4,900 420 Climbing KA90
02:09PM 42.6667 -70.9333 20° North 145 167 5,500 300 Climbing KA90
02:10PM 42.7000 -70.8833 48° Northeast 154 177 5,600  Climbing KA90
02:11PM 42.7333 -70.8500 36° Northeast 166 191 5,600  Level KA90
02:12PM 42.7667 -70.8000 48° Northeast 169 194 5,600  Level KA90
02:13PM 42.8000 -70.7500 48° Northeast 180 207 5,600  Level KA90
02:14PM 42.8333 -70.7000 48° Northeast 181 208 5,600  Level KA90
02:15PM 42.8667 -70.6500 48° Northeast 180 207 5,600  Level KA90
02:16PM 42.9000 -70.6000 48° Northeast 179 206 5,600  Level KA90
02:17PM 42.9333 -70.5667 36° Northeast 177 204 5,600  Level KA90
02:19PM 42.9648 -70.6189 309° West  Level FlightAware Approximate
02:26PM 43.1723 -70.7620 24° Northeast  Level FlightAware Approximate
02:27PM 43.2090 -70.7395 24° Northeast  Level FlightAware Approximate
02:28PM 43.2456 -70.7169 24° Northeast  Level FlightAware Approximate
02:29PM 43.2822 -70.6943 24° Northeast  Level FlightAware Approximate
02:30PM 43.3183 -70.6703 27° Northeast  Level FlightAware Approximate
02:31PM 43.3540 -70.6448 27° Northeast  Level FlightAware Approximate
02:32PM 43.3896 -70.6194 27° Northeast  Level FlightAware Approximate
02:33PM 43.4240 -70.5914 40° Northeast  Level FlightAware Approximate
02:34PM 43.4546 -70.5555 40° Northeast  Level FlightAware Approximate
02:35PM 43.4851 -70.5196 40° Northeast  Level FlightAware Approximate
02:36PM 43.5157 -70.4837 40° Northeast  Level FlightAware Approximate
02:37PM 43.5462 -70.4477 41° Northeast  Level FlightAware Approximate
02:38PM 43.5767 -70.4117 41° Northeast  Level FlightAware Approximate
02:39PM 43.6072 -70.3756 41° Northeast  Level FlightAware Approximate
02:40PM 43.6377 -70.3395 41° Northeast  Level FlightAware Approximate
02:41PM 43.6682 -70.3034 41° Northeast  Level FlightAware Approximate
02:42PM 43.6986 -70.2673 41° Northeast  Level FlightAware Approximate
02:43PM 43.7291 -70.2311 41° Northeast  Level FlightAware Approximate
02:44PM 43.7595 -70.1948 41° Northeast  Level FlightAware Approximate
02:45PM 43.7900 -70.1586 41° Northeast  Level FlightAware Approximate
02:46PM 43.8204 -70.1223 41° Northeast  Level FlightAware Approximate
02:47PM 43.8508 -70.0859 41° Northeast  Level FlightAware Approximate
02:48PM 43.8812 -70.0495 41° Northeast  Level FlightAware Approximate
02:49PM 43.9116 -70.0131 41° Northeast  Level FlightAware Approximate
02:50PM 43.9419 -69.9767 41° Northeast  Level FlightAware Approximate
02:51PM 43.9723 -69.9402 41° Northeast  Level FlightAware Approximate
02:52PM 44.0027 -69.9036 41° Northeast  Level FlightAware Approximate
02:53PM 44.0330 -69.8671 41° Northeast  Level FlightAware Approximate
02:54PM 44.0633 -69.8303 41° Northeast  Level FlightAware Approximate
02:55PM 44.0935 -69.7936 41° Northeast  Level FlightAware Approximate
02:56PM 44.1237 -69.7568 41° Northeast  Level FlightAware Approximate
02:57PM 44.1539 -69.7199 41° Northeast  Level FlightAware Approximate
02:58PM 44.1841 -69.6830 41° Northeast  Level FlightAware Approximate
02:59PM 44.2143 -69.6461 41° Northeast  Level FlightAware Approximate
03:00PM 44.2445 -69.6091 41° Northeast  Level FlightAware Approximate
03:01PM 44.2747 -69.5721 41° Northeast  Level FlightAware Approximate
03:02PM 44.3048 -69.5351 41° Northeast  Level FlightAware Approximate
03:03PM 44.3349 -69.4980 42° Northeast  Level FlightAware Approximate
03:04PM 44.3648 -69.4605 42° Northeast  Level FlightAware Approximate
03:05PM 44.3947 -69.4230 42° Northeast  Level FlightAware Approximate
03:06PM 44.4246 -69.3855 42° Northeast  Level FlightAware Approximate
03:07PM 44.4545 -69.3479 42° Northeast  Level FlightAware Approximate
03:08PM 44.4843 -69.3103 42° Northeast  Level FlightAware Approximate
03:09PM 44.5142 -69.2727 42° Northeast  Level FlightAware Approximate
03:10PM 44.5440 -69.2350 42° Northeast  Level FlightAware Approximate
03:11PM 44.5738 -69.1973 42° Northeast  Level FlightAware Approximate
03:12PM 44.6037 -69.1595 42° Northeast  Level FlightAware Approximate
03:13PM 44.6335 -69.1217 42° Northeast  Level FlightAware Approximate
03:14PM 44.6632 -69.0838 42° Northeast  Level FlightAware Approximate
03:15PM 44.6930 -69.0460 42° Northeast  Level FlightAware Approximate
03:16PM 44.7228 -69.0080 42° Northeast  Level FlightAware Approximate
03:17PM 44.7525 -68.9701 42° Northeast  Level FlightAware Approximate
03:18PM 44.7822 -68.9321 42° Northeast  Level FlightAware Approximate
03:19PM 44.8120 -68.8940 42° Northeast  Level FlightAware Approximate
03:20PM 44.8251 -68.8557 137° Southeast  Level FlightAware Approximate
03:21PM 44.7960 -68.8168 137° Southeast  Level FlightAware Approximate
03:22PM 44.7660 -68.7792 140° Southeast  Level FlightAware Approximate
03:23PM 44.7355 -68.7425 140° Southeast  Level FlightAware Approximate
03:24PM 44.7049 -68.7059 140° Southeast  Level FlightAware Approximate
03:25PM 44.6837 -68.6628 138° Southeast  Level FlightAware Approximate
03:26PM 44.6537 -68.6253 138° Southeast  Level FlightAware Approximate
03:27PM 44.6237 -68.5877 138° Southeast  Level FlightAware Approximate
03:28PM 44.5938 -68.5502 138° Southeast  Level FlightAware Approximate
03:29PM 44.5638 -68.5128 138° Southeast  Level FlightAware Approximate
03:30PM 44.5337 -68.4753 138° Southeast  Level FlightAware Approximate
03:31PM 44.5037 -68.4380 138° Southeast  Level FlightAware Approximate
03:32PM 44.4738 -68.4005 138° Southeast  Level FlightAware Approximate
03:33PM 44.4438 -68.3631 138° Southeast  Level FlightAware Approximate
03:34PM 44.4498 -68.3616 138° Southeast  Level Estimated
03:35PM 44.4498 -68.3616 138° Southeast  Level Estimated
03:36PM 44.4498 -68.3616 138° Southeast  Level Estimated
03:37PM 44.4498 -68.3616 138° Southeast  Level Estimated
03:38PM 44.4498 -68.3616 138° Southeast  Level Estimated
03:39PM 44.4498 -68.3616 138° Southeast  Level Estimated
03:40PM 44.4498 -68.3616 138° Southeast  Level Estimated
03:41PM 44.4498 -68.3616 138° Southeast  Level Estimated
03:42PM 44.4498 -68.3616 138° Southeast  Level Estimated
03:43PM 44.4498 -68.3616 138° Southeast  Level Estimated
03:44PM 44.4498 -68.3616 138° Southeast  Level Estimated
03:45PM 44.4498 -68.3616 138° Southeast  Level Estimated
03:46PM 44.4498 -68.3616 138° Southeast  Level Estimated
03:47PM 44.4498 -68.3616 138° Southeast  Level Estimated
03:48PM 44.4498 -68.3616 138° Southeast  Level Estimated
03:49PM 44.4498 -68.3616 138° Southeast  Level Estimated
03:50PM 44.4498 -68.3616 138° Southeast  Level Estimated